sensor_id;sensor_type;location;lat;lon;timestamp;pressure;altitude;pressure_sealevel;temperature;humidity
41596;BME280;27283;52.504;13.358;2022-10-19T00:02:13;102210.25;;;12.87;77.50
41596;BME280;27283;52.504;13.358;2022-10-19T00:04:45;102213.09;;;12.75;78.76
41596;BME280;27283;52.504;13.358;2022-10-19T00:07:18;102203.13;;;12.86;78.42
41596;BME280;27283;52.504;13.358;2022-10-19T00:09:52;102215.22;;;12.82;77.92
41596;BME280;27283;52.504;13.358;2022-10-19T00:12:24;102214.69;;;12.49;79.27
41596;BME280;27283;52.504;13.358;2022-10-19T00:14:56;102212.41;;;12.64;78.88
41596;BME280;27283;52.504;13.358;2022-10-19T00:17:28;102215.63;;;12.77;79.28
41596;BME280;27283;52.504;13.358;2022-10-19T00:20:00;102206.69;;;12.76;80.07
41596;BME280;27283;52.504;13.358;2022-10-19T00:22:32;102210.53;;;12.74;79.33
41596;BME280;27283;52.504;13.358;2022-10-19T00:25:08;102205.47;;;13.18;78.44
41596;BME280;27283;52.504;13.358;2022-10-19T00:27:40;102206.69;;;12.86;78.26
41596;BME280;27283;52.504;13.358;2022-10-19T00:30:12;102216.59;;;13.05;76.79
41596;BME280;27283;52.504;13.358;2022-10-19T00:32:44;102210.09;;;12.88;78.17
41596;BME280;27283;52.504;13.358;2022-10-19T00:35:15;102200.81;;;13.10;76.23
41596;BME280;27283;52.504;13.358;2022-10-19T00:37:47;102209.47;;;13.14;75.67
41596;BME280;27283;52.504;13.358;2022-10-19T00:40:22;102207.84;;;12.84;78.42
41596;BME280;27283;52.504;13.358;2022-10-19T00:42:54;102214.91;;;12.94;78.56
41596;BME280;27283;52.504;13.358;2022-10-19T00:45:30;102217.88;;;13.01;77.34
41596;BME280;27283;52.504;13.358;2022-10-19T00:48:02;102209.41;;;13.24;76.14
41596;BME280;27283;52.504;13.358;2022-10-19T00:50:34;102214.75;;;13.06;77.68
41596;BME280;27283;52.504;13.358;2022-10-19T00:53:07;102207.06;;;13.11;77.20
41596;BME280;27283;52.504;13.358;2022-10-19T00:55:42;102216.06;;;12.72;79.01
41596;BME280;27283;52.504;13.358;2022-10-19T00:58:14;102222.59;;;12.89;78.67
41596;BME280;27283;52.504;13.358;2022-10-19T01:00:58;102225.81;;;13.12;78.39
41596;BME280;27283;52.504;13.358;2022-10-19T01:03:44;102221.00;;;13.06;78.28
41596;BME280;27283;52.504;13.358;2022-10-19T01:06:17;102219.31;;;12.86;77.71
41596;BME280;27283;52.504;13.358;2022-10-19T01:08:49;102206.91;;;13.03;76.40
41596;BME280;27283;52.504;13.358;2022-10-19T01:11:35;102204.22;;;13.03;75.91
41596;BME280;27283;52.504;13.358;2022-10-19T01:14:23;102202.88;;;12.79;75.65
41596;BME280;27283;52.504;13.358;2022-10-19T01:17:03;102205.31;;;12.63;76.19
41596;BME280;27283;52.504;13.358;2022-10-19T01:20:11;102201.09;;;13.07;73.00
41596;BME280;27283;52.504;13.358;2022-10-19T01:23:04;102193.47;;;12.93;73.30
41596;BME280;27283;52.504;13.358;2022-10-19T01:25:50;102195.47;;;12.91;74.71
41596;BME280;27283;52.504;13.358;2022-10-19T01:28:38;102189.59;;;13.05;73.15
41596;BME280;27283;52.504;13.358;2022-10-19T01:31:23;102189.22;;;12.81;73.83
41596;BME280;27283;52.504;13.358;2022-10-19T01:34:03;102196.91;;;12.56;76.63
41596;BME280;27283;52.504;13.358;2022-10-19T01:36:41;102192.91;;;12.80;74.74
41596;BME280;27283;52.504;13.358;2022-10-19T01:39:31;102188.22;;;12.82;76.38
41596;BME280;27283;52.504;13.358;2022-10-19T01:42:11;102188.53;;;12.69;77.58
41596;BME280;27283;52.504;13.358;2022-10-19T01:44:49;102192.22;;;12.77;77.42
41596;BME280;27283;52.504;13.358;2022-10-19T01:47:28;102184.97;;;12.78;76.43
41596;BME280;27283;52.504;13.358;2022-10-19T01:50:07;102190.28;;;12.50;78.61
41596;BME280;27283;52.504;13.358;2022-10-19T01:52:42;102182.28;;;12.78;78.71
41596;BME280;27283;52.504;13.358;2022-10-19T01:55:15;102189.25;;;12.51;79.45
41596;BME280;27283;52.504;13.358;2022-10-19T01:57:52;102189.53;;;12.77;78.03
41596;BME280;27283;52.504;13.358;2022-10-19T02:00:26;102181.63;;;13.04;76.65
41596;BME280;27283;52.504;13.358;2022-10-19T02:03:03;102179.03;;;12.74;77.02
41596;BME280;27283;52.504;13.358;2022-10-19T02:05:37;102177.91;;;12.48;78.96
41596;BME280;27283;52.504;13.358;2022-10-19T02:08:12;102175.66;;;12.43;80.65
41596;BME280;27283;52.504;13.358;2022-10-19T02:10:45;102172.94;;;12.33;80.35
41596;BME280;27283;52.504;13.358;2022-10-19T02:13:18;102177.00;;;12.76;78.36
41596;BME280;27283;52.504;13.358;2022-10-19T02:15:53;102174.50;;;13.03;77.68
41596;BME280;27283;52.504;13.358;2022-10-19T02:18:33;102175.75;;;12.81;76.83
41596;BME280;27283;52.504;13.358;2022-10-19T02:21:07;102176.38;;;12.35;77.99
41596;BME280;27283;52.504;13.358;2022-10-19T02:23:42;102173.53;;;12.37;78.22
41596;BME280;27283;52.504;13.358;2022-10-19T02:26:17;102175.34;;;12.56;77.29
41596;BME280;27283;52.504;13.358;2022-10-19T02:28:50;102180.75;;;12.46;77.80
41596;BME280;27283;52.504;13.358;2022-10-19T02:31:24;102177.78;;;12.30;78.03
41596;BME280;27283;52.504;13.358;2022-10-19T02:33:59;102186.41;;;12.53;78.35
41596;BME280;27283;52.504;13.358;2022-10-19T02:36:30;102182.13;;;12.80;75.90
41596;BME280;27283;52.504;13.358;2022-10-19T02:39:03;102185.84;;;12.59;77.04
41596;BME280;27283;52.504;13.358;2022-10-19T02:41:38;102182.88;;;12.62;76.74
41596;BME280;27283;52.504;13.358;2022-10-19T02:44:16;102183.88;;;12.51;76.01
41596;BME280;27283;52.504;13.358;2022-10-19T02:46:51;102178.03;;;12.36;77.88
41596;BME280;27283;52.504;13.358;2022-10-19T02:49:28;102170.38;;;12.32;78.25
41596;BME280;27283;52.504;13.358;2022-10-19T02:52:05;102175.44;;;12.84;76.82
41596;BME280;27283;52.504;13.358;2022-10-19T02:54:39;102175.63;;;12.63;77.05
41596;BME280;27283;52.504;13.358;2022-10-19T02:57:15;102175.34;;;12.56;77.21
41596;BME280;27283;52.504;13.358;2022-10-19T02:59:48;102177.38;;;12.25;78.70
41596;BME280;27283;52.504;13.358;2022-10-19T03:02:20;102179.78;;;12.28;78.01
41596;BME280;27283;52.504;13.358;2022-10-19T03:04:54;102172.81;;;12.45;78.12
41596;BME280;27283;52.504;13.358;2022-10-19T03:07:26;102175.09;;;12.39;78.51
41596;BME280;27283;52.504;13.358;2022-10-19T03:09:58;102171.69;;;12.47;78.70
41596;BME280;27283;52.504;13.358;2022-10-19T03:12:29;102182.88;;;12.62;78.52
41596;BME280;27283;52.504;13.358;2022-10-19T03:15:02;102183.09;;;12.88;76.62
41596;BME280;27283;52.504;13.358;2022-10-19T03:17:34;102186.38;;;12.72;78.42
41596;BME280;27283;52.504;13.358;2022-10-19T03:20:10;102189.63;;;12.96;77.13
41596;BME280;27283;52.504;13.358;2022-10-19T03:22:42;102182.56;;;12.75;77.58
41596;BME280;27283;52.504;13.358;2022-10-19T03:25:14;102193.50;;;12.83;77.57
41596;BME280;27283;52.504;13.358;2022-10-19T03:27:46;102190.91;;;12.82;77.49
41596;BME280;27283;52.504;13.358;2022-10-19T03:30:18;102197.72;;;12.86;77.13
41596;BME280;27283;52.504;13.358;2022-10-19T03:32:50;102194.78;;;12.69;77.92
41596;BME280;27283;52.504;13.358;2022-10-19T03:35:25;102192.66;;;12.73;77.26
41596;BME280;27283;52.504;13.358;2022-10-19T03:37:56;102196.09;;;12.65;78.89
41596;BME280;27283;52.504;13.358;2022-10-19T03:40:28;102194.38;;;12.05;80.01
41596;BME280;27283;52.504;13.358;2022-10-19T03:43:00;102197.94;;;12.16;80.32
41596;BME280;27283;52.504;13.358;2022-10-19T03:45:32;102207.19;;;12.43;79.28
41596;BME280;27283;52.504;13.358;2022-10-19T03:48:05;102205.91;;;12.37;79.17
41596;BME280;27283;52.504;13.358;2022-10-19T03:50:40;102212.56;;;12.52;78.95
41596;BME280;27283;52.504;13.358;2022-10-19T03:53:12;102204.63;;;12.61;77.77
41596;BME280;27283;52.504;13.358;2022-10-19T03:55:44;102202.28;;;12.85;77.44
41596;BME280;27283;52.504;13.358;2022-10-19T03:58:15;102215.00;;;12.46;78.79
41596;BME280;27283;52.504;13.358;2022-10-19T04:00:48;102200.19;;;12.59;78.27
41596;BME280;27283;52.504;13.358;2022-10-19T04:03:19;102208.69;;;12.84;76.61
41596;BME280;27283;52.504;13.358;2022-10-19T04:06:00;102217.66;;;12.85;76.87
41596;BME280;27283;52.504;13.358;2022-10-19T04:08:32;102213.84;;;12.58;77.62
41596;BME280;27283;52.504;13.358;2022-10-19T04:11:08;102221.19;;;12.75;77.21
41596;BME280;27283;52.504;13.358;2022-10-19T04:13:40;102221.75;;;12.69;76.46
41596;BME280;27283;52.504;13.358;2022-10-19T04:16:12;102223.78;;;12.67;77.31
41596;BME280;27283;52.504;13.358;2022-10-19T04:18:44;102232.28;;;12.82;75.46
41596;BME280;27283;52.504;13.358;2022-10-19T04:21:25;102227.59;;;12.74;74.99
41596;BME280;27283;52.504;13.358;2022-10-19T04:23:59;102225.91;;;12.54;74.90
41596;BME280;27283;52.504;13.358;2022-10-19T04:26:32;102225.59;;;12.76;74.48
41596;BME280;27283;52.504;13.358;2022-10-19T04:29:04;102229.41;;;12.93;72.69
41596;BME280;27283;52.504;13.358;2022-10-19T04:31:37;102224.88;;;12.84;72.50
41596;BME280;27283;52.504;13.358;2022-10-19T04:34:09;102229.19;;;12.48;73.35
41596;BME280;27283;52.504;13.358;2022-10-19T04:36:44;102228.31;;;12.57;73.22
41596;BME280;27283;52.504;13.358;2022-10-19T04:39:16;102228.00;;;12.89;71.38
41596;BME280;27283;52.504;13.358;2022-10-19T04:41:48;102236.41;;;12.86;71.60
41596;BME280;27283;52.504;13.358;2022-10-19T04:44:20;102236.09;;;12.80;71.16
41596;BME280;27283;52.504;13.358;2022-10-19T04:46:52;102239.97;;;12.67;71.95
41596;BME280;27283;52.504;13.358;2022-10-19T04:49:24;102244.50;;;12.76;73.24
41596;BME280;27283;52.504;13.358;2022-10-19T04:52:00;102241.22;;;12.92;71.60
41596;BME280;27283;52.504;13.358;2022-10-19T04:54:31;102247.78;;;12.70;72.61
41596;BME280;27283;52.504;13.358;2022-10-19T04:57:03;102254.31;;;12.58;72.60
41596;BME280;27283;52.504;13.358;2022-10-19T04:59:35;102254.88;;;12.62;72.10
41596;BME280;27283;52.504;13.358;2022-10-19T05:02:08;102245.06;;;12.51;73.44
41596;BME280;27283;52.504;13.358;2022-10-19T05:04:39;102249.78;;;12.49;73.81
41596;BME280;27283;52.504;13.358;2022-10-19T05:07:18;102245.22;;;12.69;72.55
41596;BME280;27283;52.504;13.358;2022-10-19T05:09:50;102258.28;;;12.64;72.18
41596;BME280;27283;52.504;13.358;2022-10-19T05:12:22;102256.03;;;12.39;74.43
41596;BME280;27283;52.504;13.358;2022-10-19T05:14:54;102258.38;;;11.73;76.49
41596;BME280;27283;52.504;13.358;2022-10-19T05:17:29;102258.38;;;12.13;76.21
41596;BME280;27283;52.504;13.358;2022-10-19T05:20:02;102263.53;;;12.36;75.02
41596;BME280;27283;52.504;13.358;2022-10-19T05:22:37;102259.56;;;11.89;77.07
41596;BME280;27283;52.504;13.358;2022-10-19T05:25:09;102272.97;;;12.01;76.73
41596;BME280;27283;52.504;13.358;2022-10-19T05:27:41;102275.25;;;12.05;77.29
41596;BME280;27283;52.504;13.358;2022-10-19T05:30:13;102271.06;;;12.32;77.12
41596;BME280;27283;52.504;13.358;2022-10-19T05:32:45;102277.56;;;12.20;77.96
41596;BME280;27283;52.504;13.358;2022-10-19T05:35:17;102266.66;;;12.21;78.52
41596;BME280;27283;52.504;13.358;2022-10-19T05:37:55;102270.97;;;11.62;81.17
41596;BME280;27283;52.504;13.358;2022-10-19T05:40:27;102264.78;;;11.72;81.20
41596;BME280;27283;52.504;13.358;2022-10-19T05:42:59;102267.63;;;11.70;81.75
41596;BME280;27283;52.504;13.358;2022-10-19T05:45:30;102263.00;;;11.92;80.71
41596;BME280;27283;52.504;13.358;2022-10-19T05:48:03;102264.91;;;11.70;79.89
41596;BME280;27283;52.504;13.358;2022-10-19T05:50:34;102269.63;;;11.78;80.38
41596;BME280;27283;52.504;13.358;2022-10-19T05:53:09;102270.16;;;11.72;80.66
41596;BME280;27283;52.504;13.358;2022-10-19T05:55:43;102272.72;;;11.73;80.89
41596;BME280;27283;52.504;13.358;2022-10-19T05:58:15;102278.09;;;12.04;79.04
41596;BME280;27283;52.504;13.358;2022-10-19T06:00:50;102269.63;;;11.87;79.89
41596;BME280;27283;52.504;13.358;2022-10-19T06:03:23;102270.19;;;11.91;80.09
41596;BME280;27283;52.504;13.358;2022-10-19T06:05:56;102276.84;;;12.18;78.67
41596;BME280;27283;52.504;13.358;2022-10-19T06:08:30;102270.28;;;12.11;79.25
41596;BME280;27283;52.504;13.358;2022-10-19T06:11:06;102279.56;;;12.28;79.10
41596;BME280;27283;52.504;13.358;2022-10-19T06:13:40;102286.34;;;12.22;77.99
41596;BME280;27283;52.504;13.358;2022-10-19T06:16:14;102284.06;;;11.77;79.91
41596;BME280;27283;52.504;13.358;2022-10-19T06:18:46;102289.28;;;11.99;79.33
41596;BME280;27283;52.504;13.358;2022-10-19T06:21:20;102288.19;;;12.12;78.45
41596;BME280;27283;52.504;13.358;2022-10-19T06:24:04;102293.59;;;11.81;79.36
41596;BME280;27283;52.504;13.358;2022-10-19T06:26:36;102295.94;;;11.95;80.40
41596;BME280;27283;52.504;13.358;2022-10-19T06:29:08;102290.28;;;11.98;79.56
41596;BME280;27283;52.504;13.358;2022-10-19T06:31:40;102291.44;;;12.05;79.51
41596;BME280;27283;52.504;13.358;2022-10-19T06:34:14;102288.16;;;12.02;80.08
41596;BME280;27283;52.504;13.358;2022-10-19T06:36:45;102297.59;;;12.37;78.89
41596;BME280;27283;52.504;13.358;2022-10-19T06:39:20;102297.72;;;12.26;79.88
41596;BME280;27283;52.504;13.358;2022-10-19T06:41:52;102292.13;;;12.08;80.15
41596;BME280;27283;52.504;13.358;2022-10-19T06:44:24;102283.00;;;12.39;79.48
41596;BME280;27283;52.504;13.358;2022-10-19T06:46:55;102286.41;;;12.61;79.80
41596;BME280;27283;52.504;13.358;2022-10-19T06:49:27;102297.63;;;12.56;78.89
41596;BME280;27283;52.504;13.358;2022-10-19T06:51:59;102296.06;;;12.54;79.15
41596;BME280;27283;52.504;13.358;2022-10-19T06:54:36;102309.53;;;12.54;79.46
41596;BME280;27283;52.504;13.358;2022-10-19T06:57:08;102297.47;;;12.38;80.29
41596;BME280;27283;52.504;13.358;2022-10-19T06:59:40;102302.25;;;12.35;80.80
41596;BME280;27283;52.504;13.358;2022-10-19T07:02:15;102302.81;;;12.29;79.78
41596;BME280;27283;52.504;13.358;2022-10-19T07:04:47;102301.00;;;12.39;81.21
41596;BME280;27283;52.504;13.358;2022-10-19T07:07:19;102306.94;;;12.23;80.03
41596;BME280;27283;52.504;13.358;2022-10-19T07:09:54;102309.97;;;12.39;80.78
41596;BME280;27283;52.504;13.358;2022-10-19T07:12:26;102313.97;;;12.74;78.85
41596;BME280;27283;52.504;13.358;2022-10-19T07:14:59;102316.38;;;12.87;77.29
41596;BME280;27283;52.504;13.358;2022-10-19T07:17:30;102313.53;;;12.99;77.60
41596;BME280;27283;52.504;13.358;2022-10-19T07:20:04;102308.53;;;12.35;79.24
41596;BME280;27283;52.504;13.358;2022-10-19T07:22:36;102325.75;;;12.64;79.34
41596;BME280;27283;52.504;13.358;2022-10-19T07:25:11;102324.03;;;13.02;77.66
41596;BME280;27283;52.504;13.358;2022-10-19T07:27:43;102326.28;;;13.16;74.77
41596;BME280;27283;52.504;13.358;2022-10-19T07:30:15;102327.41;;;13.23;76.28
41596;BME280;27283;52.504;13.358;2022-10-19T07:33:01;102331.25;;;13.30;75.01
41596;BME280;27283;52.504;13.358;2022-10-19T07:35:37;102339.34;;;13.50;74.95
41596;BME280;27283;52.504;13.358;2022-10-19T07:38:09;102338.50;;;13.20;76.17
41596;BME280;27283;52.504;13.358;2022-10-19T07:40:45;102337.66;;;13.39;75.78
41596;BME280;27283;52.504;13.358;2022-10-19T07:43:17;102343.50;;;13.05;75.46
41596;BME280;27283;52.504;13.358;2022-10-19T07:45:56;102345.59;;;13.31;75.79
41596;BME280;27283;52.504;13.358;2022-10-19T07:48:29;102341.25;;;12.71;77.08
41596;BME280;27283;52.504;13.358;2022-10-19T07:51:04;102337.50;;;12.53;76.80
41596;BME280;27283;52.504;13.358;2022-10-19T07:53:39;102350.72;;;13.15;75.24
41596;BME280;27283;52.504;13.358;2022-10-19T07:56:16;102354.56;;;13.22;73.89
41596;BME280;27283;52.504;13.358;2022-10-19T07:58:49;102352.63;;;12.85;75.70
41596;BME280;27283;52.504;13.358;2022-10-19T08:01:23;102356.00;;;13.26;74.58
41596;BME280;27283;52.504;13.358;2022-10-19T08:03:57;102353.56;;;13.52;73.60
41596;BME280;27283;52.504;13.358;2022-10-19T08:06:50;102353.59;;;13.42;73.86
41596;BME280;27283;52.504;13.358;2022-10-19T08:09:22;102354.78;;;13.68;73.05
41596;BME280;27283;52.504;13.358;2022-10-19T08:12:18;102365.41;;;12.92;76.00
41596;BME280;27283;52.504;13.358;2022-10-19T08:14:50;102362.69;;;13.12;75.92
41596;BME280;27283;52.504;13.358;2022-10-19T08:17:24;102364.38;;;13.13;77.42
41596;BME280;27283;52.504;13.358;2022-10-19T08:19:56;102364.25;;;13.15;77.08
41596;BME280;27283;52.504;13.358;2022-10-19T08:22:29;102367.91;;;12.55;78.75
41596;BME280;27283;52.504;13.358;2022-10-19T08:25:02;102376.06;;;12.24;80.70
41596;BME280;27283;52.504;13.358;2022-10-19T08:27:37;102375.31;;;12.63;78.92
41596;BME280;27283;52.504;13.358;2022-10-19T08:30:10;102373.22;;;12.16;79.75
41596;BME280;27283;52.504;13.358;2022-10-19T08:32:43;102377.50;;;12.28;80.13
41596;BME280;27283;52.504;13.358;2022-10-19T08:35:15;102371.47;;;12.55;78.11
41596;BME280;27283;52.504;13.358;2022-10-19T08:37:49;102369.59;;;12.46;79.18
41596;BME280;27283;52.504;13.358;2022-10-19T08:40:24;102376.25;;;12.42;78.84
41596;BME280;27283;52.504;13.358;2022-10-19T08:43:04;102372.06;;;12.88;77.50
41596;BME280;27283;52.504;13.358;2022-10-19T08:45:41;102380.16;;;13.37;75.56
41596;BME280;27283;52.504;13.358;2022-10-19T08:48:23;102381.00;;;12.69;77.47
41596;BME280;27283;52.504;13.358;2022-10-19T08:50:57;102380.72;;;13.11;75.87
41596;BME280;27283;52.504;13.358;2022-10-19T08:53:36;102384.59;;;13.86;74.22
41596;BME280;27283;52.504;13.358;2022-10-19T08:56:26;102382.84;;;14.04;71.51
41596;BME280;27283;52.504;13.358;2022-10-19T08:59:28;102384.22;;;13.80;72.00
41596;BME280;27283;52.504;13.358;2022-10-19T09:02:09;102378.50;;;13.83;71.86
41596;BME280;27283;52.504;13.358;2022-10-19T09:04:47;102379.25;;;14.13;71.88
41596;BME280;27283;52.504;13.358;2022-10-19T09:07:25;102380.53;;;14.65;69.37
41596;BME280;27283;52.504;13.358;2022-10-19T09:10:03;102381.22;;;14.67;68.67
41596;BME280;27283;52.504;13.358;2022-10-19T09:12:44;102377.59;;;14.76;67.98
41596;BME280;27283;52.504;13.358;2022-10-19T09:15:32;102374.69;;;14.60;69.31
41596;BME280;27283;52.504;13.358;2022-10-19T09:18:09;102390.22;;;14.12;70.31
41596;BME280;27283;52.504;13.358;2022-10-19T09:20:43;102393.38;;;14.35;69.90
41596;BME280;27283;52.504;13.358;2022-10-19T09:23:21;102389.34;;;14.67;69.22
41596;BME280;27283;52.504;13.358;2022-10-19T09:25:57;102387.44;;;14.77;69.38
41596;BME280;27283;52.504;13.358;2022-10-19T09:28:41;102388.53;;;14.84;68.69
41596;BME280;27283;52.504;13.358;2022-10-19T09:31:25;102399.34;;;14.66;67.92
41596;BME280;27283;52.504;13.358;2022-10-19T09:34:02;102404.19;;;14.63;67.92
41596;BME280;27283;52.504;13.358;2022-10-19T09:36:38;102404.47;;;14.60;69.90
41596;BME280;27283;52.504;13.358;2022-10-19T09:39:19;102409.41;;;14.74;67.71
41596;BME280;27283;52.504;13.358;2022-10-19T09:41:59;102405.63;;;14.29;69.11
41596;BME280;27283;52.504;13.358;2022-10-19T09:44:35;102401.84;;;14.50;69.34
41596;BME280;27283;52.504;13.358;2022-10-19T09:47:25;102409.44;;;14.64;67.81
41596;BME280;27283;52.504;13.358;2022-10-19T09:50:17;102419.75;;;13.86;70.61
41596;BME280;27283;52.504;13.358;2022-10-19T09:52:51;102419.09;;;14.11;69.35
41596;BME280;27283;52.504;13.358;2022-10-19T09:55:29;102417.22;;;14.49;67.61
41596;BME280;27283;52.504;13.358;2022-10-19T09:58:15;102418.38;;;14.47;66.80
41596;BME280;27283;52.504;13.358;2022-10-19T10:00:48;102421.34;;;14.16;66.00
41596;BME280;27283;52.504;13.358;2022-10-19T10:03:29;102419.28;;;14.00;65.80
41596;BME280;27283;52.504;13.358;2022-10-19T10:06:05;102427.94;;;14.04;65.68
41596;BME280;27283;52.504;13.358;2022-10-19T10:08:39;102416.00;;;13.96;65.73
41596;BME280;27283;52.504;13.358;2022-10-19T10:11:22;102429.00;;;13.93;66.15
41596;BME280;27283;52.504;13.358;2022-10-19T10:13:55;102413.56;;;14.41;63.45
41596;BME280;27283;52.504;13.358;2022-10-19T10:16:29;102409.22;;;14.30;61.01
41596;BME280;27283;52.504;13.358;2022-10-19T10:19:05;102414.03;;;14.64;59.68
41596;BME280;27283;52.504;13.358;2022-10-19T10:21:47;102401.81;;;14.78;60.58
41596;BME280;27283;52.504;13.358;2022-10-19T10:24:22;102411.97;;;14.94;58.30
41596;BME280;27283;52.504;13.358;2022-10-19T10:26:55;102419.19;;;15.03;57.59
41596;BME280;27283;52.504;13.358;2022-10-19T10:29:28;102415.16;;;15.25;56.84
41596;BME280;27283;52.504;13.358;2022-10-19T10:32:03;102415.44;;;15.40;55.98
41596;BME280;27283;52.504;13.358;2022-10-19T10:34:40;102418.69;;;15.26;55.14
41596;BME280;27283;52.504;13.358;2022-10-19T10:37:27;102430.84;;;14.67;56.26
41596;BME280;27283;52.504;13.358;2022-10-19T10:40:00;102430.91;;;14.48;58.26
41596;BME280;27283;52.504;13.358;2022-10-19T10:42:34;102433.66;;;14.38;56.23
41596;BME280;27283;52.504;13.358;2022-10-19T10:45:16;102424.72;;;14.83;56.86
41596;BME280;27283;52.504;13.358;2022-10-19T10:47:48;102420.72;;;15.05;53.84
41596;BME280;27283;52.504;13.358;2022-10-19T10:50:25;102417.59;;;15.36;53.09
41596;BME280;27283;52.504;13.358;2022-10-19T10:53:04;102413.31;;;15.96;49.53
41596;BME280;27283;52.504;13.358;2022-10-19T10:55:37;102410.34;;;16.50;48.13
41596;BME280;27283;52.504;13.358;2022-10-19T10:58:14;102413.00;;;16.34;47.18
41596;BME280;27283;52.504;13.358;2022-10-19T11:00:56;102420.16;;;16.08;48.90
41596;BME280;27283;52.504;13.358;2022-10-19T11:03:35;102420.88;;;15.84;48.11
41596;BME280;27283;52.504;13.358;2022-10-19T11:06:13;102416.19;;;15.50;48.10
41596;BME280;27283;52.504;13.358;2022-10-19T11:08:50;102417.38;;;15.30;47.83
41596;BME280;27283;52.504;13.358;2022-10-19T11:11:30;102419.44;;;15.54;47.50
41596;BME280;27283;52.504;13.358;2022-10-19T11:14:24;102416.84;;;15.88;47.18
41596;BME280;27283;52.504;13.358;2022-10-19T11:17:04;102407.97;;;16.63;47.08
41596;BME280;27283;52.504;13.358;2022-10-19T11:19:40;102407.56;;;17.01;46.17
41596;BME280;27283;52.504;13.358;2022-10-19T11:22:26;102406.75;;;16.41;46.41
41596;BME280;27283;52.504;13.358;2022-10-19T11:25:14;102408.41;;;16.42;47.06
41596;BME280;27283;52.504;13.358;2022-10-19T11:28:01;102407.63;;;15.81;48.76
41596;BME280;27283;52.504;13.358;2022-10-19T11:30:40;102403.19;;;15.54;49.04
41596;BME280;27283;52.504;13.358;2022-10-19T11:33:31;102402.56;;;16.12;47.32
41596;BME280;27283;52.504;13.358;2022-10-19T11:36:14;102402.75;;;15.22;50.24
41596;BME280;27283;52.504;13.358;2022-10-19T11:39:04;102399.06;;;15.23;51.07
41596;BME280;27283;52.504;13.358;2022-10-19T11:41:48;102396.84;;;15.45;51.34
41596;BME280;27283;52.504;13.358;2022-10-19T11:44:35;102393.81;;;15.74;49.37
41596;BME280;27283;52.504;13.358;2022-10-19T11:47:29;102383.16;;;15.99;48.76
41596;BME280;27283;52.504;13.358;2022-10-19T11:50:15;102383.47;;;15.96;49.09
41596;BME280;27283;52.504;13.358;2022-10-19T11:53:01;102377.22;;;16.04;49.02
41596;BME280;27283;52.504;13.358;2022-10-19T11:55:45;102382.75;;;15.86;48.57
41596;BME280;27283;52.504;13.358;2022-10-19T11:58:33;102388.38;;;15.74;49.38
41596;BME280;27283;52.504;13.358;2022-10-19T12:01:18;102389.50;;;15.82;48.45
41596;BME280;27283;52.504;13.358;2022-10-19T12:04:19;102387.63;;;15.38;49.78
41596;BME280;27283;52.504;13.358;2022-10-19T12:07:01;102388.47;;;15.83;49.22
41596;BME280;27283;52.504;13.358;2022-10-19T12:09:44;102385.22;;;15.79;49.47
41596;BME280;27283;52.504;13.358;2022-10-19T12:12:30;102381.19;;;15.83;49.36
41596;BME280;27283;52.504;13.358;2022-10-19T12:15:21;102382.41;;;15.89;49.60
41596;BME280;27283;52.504;13.358;2022-10-19T12:18:02;102382.41;;;15.89;49.92
41596;BME280;27283;52.504;13.358;2022-10-19T12:20:40;102381.03;;;15.14;50.57
41596;BME280;27283;52.504;13.358;2022-10-19T12:23:29;102378.03;;;15.44;50.80
41596;BME280;27283;52.504;13.358;2022-10-19T12:26:04;102384.84;;;15.74;49.67
41596;BME280;27283;52.504;13.358;2022-10-19T12:28:45;102375.78;;;15.39;49.79
41596;BME280;27283;52.504;13.358;2022-10-19T12:31:19;102376.28;;;15.60;48.50
41596;BME280;27283;52.504;13.358;2022-10-19T12:33:59;102371.88;;;15.59;49.75
41596;BME280;27283;52.504;13.358;2022-10-19T12:36:37;102362.88;;;15.33;50.06
41596;BME280;27283;52.504;13.358;2022-10-19T12:39:20;102366.47;;;15.59;49.48
41596;BME280;27283;52.504;13.358;2022-10-19T12:42:00;102364.69;;;15.50;49.65
41596;BME280;27283;52.504;13.358;2022-10-19T12:45:07;102369.38;;;15.40;50.52
41596;BME280;27283;52.504;13.358;2022-10-19T12:48:14;102352.59;;;15.63;49.67
41596;BME280;27283;52.504;13.358;2022-10-19T12:51:14;102359.25;;;15.76;48.53
41596;BME280;27283;52.504;13.358;2022-10-19T12:53:48;102350.78;;;16.06;48.68
41596;BME280;27283;52.504;13.358;2022-10-19T12:56:22;102352.09;;;16.02;47.30
41596;BME280;27283;52.504;13.358;2022-10-19T12:59:21;102362.63;;;15.97;47.59
41596;BME280;27283;52.504;13.358;2022-10-19T13:01:57;102358.34;;;15.94;48.34
41596;BME280;27283;52.504;13.358;2022-10-19T13:04:34;102356.03;;;16.07;48.62
41596;BME280;27283;52.504;13.358;2022-10-19T13:07:08;102358.91;;;16.06;49.52
41596;BME280;27283;52.504;13.358;2022-10-19T13:09:47;102357.47;;;15.85;48.66
41596;BME280;27283;52.504;13.358;2022-10-19T13:19:03;102351.78;;;15.00;51.76
41596;BME280;27283;52.504;13.358;2022-10-19T13:21:46;102351.06;;;14.62;51.44
41596;BME280;27283;52.504;13.358;2022-10-19T13:24:25;102343.75;;;14.44;53.38
41596;BME280;27283;52.504;13.358;2022-10-19T13:27:25;102341.63;;;14.66;53.88
41596;BME280;27283;52.504;13.358;2022-10-19T13:29:58;102329.84;;;14.57;52.06
41596;BME280;27283;52.504;13.358;2022-10-19T13:32:35;102333.22;;;14.41;52.82
41596;BME280;27283;52.504;13.358;2022-10-19T13:35:25;102344.50;;;14.82;52.32
41596;BME280;27283;52.504;13.358;2022-10-19T13:38:22;102337.31;;;14.73;53.19